Terminal Aerodrome Forecast
Issued by NWS St Louis, MO

Home | Current Version | Previous Version | Text Only | Print | Product List | Glossary On
Versions: 1 2 3 4 5 6 7 8 9 10 11 12
000
FTUS43 KLSX 192300
TAFCOU
TAF
KCOU 192324Z 2000/2024 VRB04KT P6SM SCT060
     FM200100 15004KT P6SM SCT250
     FM201500 20007KT P6SM SCT050=

USA.gov is the U.S. government's official web portal to all federal, state and local government web resources and services.